Time;durP1;ratioP1;P1;durP2;ratioP2;P2;SDS_P1;SDS_P2;PMS_P1;PMS_P2;Temp;Humidity;BMP_temperature;BMP_pressure;BME280_temperature;BME280_humidity;BME280_pressure;Samples;Min_cycle;Max_cycle;Signal;HPM_P1;HPM_P2
2022/08/21 00:01:32;;;;;;;12.55;3.40;;;22.00;79.80;;;;;;4957193;28;20086;-73
2022/08/21 00:04:03;;;;;;;12.05;3.30;;;22.00;79.90;;;;;;4943754;29;20079;-71
2022/08/21 00:06:28;;;;;;;9.70;3.65;;;22.00;79.90;;;;;;4944785;28;20042;-71
2022/08/21 00:08:54;;;;;;;10.13;4.25;;;22.00;79.90;;;;;;4956232;28;20023;-71
2022/08/21 00:11:20;;;;;;;14.43;3.90;;;21.90;79.90;;;;;;4955273;28;20027;-71
2022/08/21 00:13:45;;;;;;;14.63;3.92;;;21.90;79.90;;;;;;4944857;28;20064;-71
2022/08/21 00:16:11;;;;;;;7.55;3.65;;;21.90;79.90;;;;;;4956384;29;20027;-71
2022/08/21 00:18:37;;;;;;;10.23;3.70;;;21.90;79.90;;;;;;4943277;29;20041;-71
2022/08/21 00:21:03;;;;;;;10.18;3.90;;;21.80;79.80;;;;;;4955806;28;20483;-71
2022/08/21 00:23:29;;;;;;;7.85;3.17;;;21.80;79.80;;;;;;4956369;28;20118;-71
2022/08/21 00:25:55;;;;;;;8.43;3.42;;;21.70;79.80;;;;;;4955917;28;20082;-71
2022/08/21 00:28:21;;;;;;;6.85;3.10;;;21.70;79.90;;;;;;4956454;28;20031;-71
2022/08/21 00:30:47;;;;;;;8.13;3.53;;;21.70;79.80;;;;;;4955995;28;20144;-71
2022/08/21 00:33:13;;;;;;;8.35;3.15;;;21.70;79.80;;;;;;4955608;28;20082;-71
2022/08/21 00:35:41;;;;;;;11.48;4.03;;;21.60;79.80;;;;;;4944907;29;20019;-71
2022/08/21 00:38:08;;;;;;;8.93;2.90;;;21.60;80.00;;;;;;4955666;29;20035;-71
2022/08/21 00:40:44;;;;;;;9.48;3.13;;;21.60;80.00;;;;;;4944209;29;20047;-71
2022/08/21 00:43:12;;;;;;;6.00;2.90;;;21.50;79.80;;;;;;4956092;28;20494;-71
2022/08/21 00:45:38;;;;;;;5.63;3.38;;;21.50;79.60;;;;;;4956675;28;20070;-71
2022/08/21 00:48:05;;;;;;;7.72;3.40;;;21.50;79.60;;;;;;4955146;28;20027;-71
2022/08/21 00:50:34;;;;;;;7.22;3.17;;;21.40;79.40;;;;;;4956184;28;20497;-71
2022/08/21 00:53:01;;;;;;;6.65;3.20;;;21.40;79.70;;;;;;4943704;28;20130;-71
2022/08/21 00:55:29;;;;;;;9.07;3.30;;;21.30;79.90;;;;;;4956153;29;20051;-71
2022/08/21 00:57:58;;;;;;;5.13;3.10;;;21.30;80.10;;;;;;4952462;28;20034;-71
2022/08/21 01:00:30;;;;;;;7.18;3.10;;;21.30;80.40;;;;;;4947331;28;20126;-71
2022/08/21 01:03:00;;;;;;;7.28;2.78;;;21.30;80.40;;;;;;4951416;28;20074;-71
2022/08/21 01:05:27;;;;;;;5.97;3.05;;;21.20;80.40;;;;;;4948546;29;20054;-71
2022/08/21 01:07:53;;;;;;;6.05;3.25;;;21.20;80.40;;;;;;4942580;28;20027;-71
2022/08/21 01:10:19;;;;;;;6.38;3.30;;;21.20;80.50;;;;;;4945387;28;20075;-71
2022/08/21 01:12:45;;;;;;;8.95;3.50;;;21.10;80.40;;;;;;4954773;28;20031;-71
2022/08/21 01:15:14;;;;;;;8.35;3.35;;;21.10;80.40;;;;;;4955613;28;20043;-71
2022/08/21 01:17:40;;;;;;;9.50;3.78;;;21.10;80.50;;;;;;4955042;28;20392;-71
2022/08/21 01:20:08;;;;;;;9.27;3.50;;;21.00;80.60;;;;;;4955898;28;20043;-71
2022/08/21 01:22:35;;;;;;;11.38;3.95;;;21.10;80.80;;;;;;4936466;28;20054;-71
2022/08/21 01:25:02;;;;;;;11.57;3.60;;;21.10;80.80;;;;;;4938598;29;20372;-70
2022/08/21 01:27:28;;;;;;;7.97;3.30;;;21.00;80.90;;;;;;4938058;29;20410;-71
2022/08/21 01:30:00;;;;;;;12.23;3.47;;;21.00;81.00;;;;;;4936748;29;20043;-71
2022/08/21 01:32:26;;;;;;;11.25;3.33;;;21.00;81.10;;;;;;4937870;28;20391;-71
2022/08/21 01:34:53;;;;;;;14.07;3.33;;;20.90;81.10;;;;;;4938756;28;20043;-71
2022/08/21 01:37:21;;;;;;;6.78;3.30;;;20.90;81.20;;;;;;4947378;28;20043;-71
2022/08/21 01:39:47;;;;;;;12.50;3.28;;;20.90;81.60;;;;;;4949626;28;20487;-70
2022/08/21 01:42:13;;;;;;;7.57;3.22;;;20.90;81.40;;;;;;4950591;29;20031;-71
2022/08/21 01:44:40;;;;;;;10.20;3.00;;;20.80;81.30;;;;;;4955022;28;20063;-71
2022/08/21 01:47:09;;;;;;;8.63;3.13;;;20.80;81.20;;;;;;4955076;28;20046;-70
2022/08/21 01:49:37;;;;;;;13.88;3.30;;;20.80;81.20;;;;;;4953743;28;20031;-71
2022/08/21 01:52:04;;;;;;;6.65;2.78;;;20.80;81.40;;;;;;4955469;28;20045;-71
2022/08/21 01:54:30;;;;;;;11.82;3.80;;;20.70;81.50;;;;;;4950569;28;20048;-70
2022/08/21 01:56:57;;;;;;;11.15;3.25;;;20.70;81.60;;;;;;4946759;28;20034;-71
2022/08/21 01:59:26;;;;;;;6.93;3.05;;;20.70;81.70;;;;;;4945749;29;20039;-71
2022/08/21 02:01:53;;;;;;;9.18;3.88;;;20.70;81.80;;;;;;4948208;29;20134;-71
2022/08/21 02:04:19;;;;;;;10.23;3.47;;;20.70;81.70;;;;;;4950010;28;20068;-71
2022/08/21 02:06:45;;;;;;;9.70;3.47;;;20.70;81.70;;;;;;4955570;28;20031;-71
2022/08/21 02:09:13;;;;;;;10.23;3.20;;;20.60;81.70;;;;;;4941916;28;20518;-71
2022/08/21 02:11:40;;;;;;;8.25;3.00;;;20.60;81.80;;;;;;4952570;29;20067;-71
2022/08/21 02:14:11;;;;;;;6.18;3.00;;;20.60;81.90;;;;;;4953235;28;20028;-71
2022/08/21 02:16:38;;;;;;;10.63;3.15;;;20.60;82.00;;;;;;4952521;29;20466;-70
2022/08/21 02:19:04;;;;;;;7.28;3.47;;;20.50;81.90;;;;;;4935187;29;20455;-71
2022/08/21 02:21:30;;;;;;;9.15;2.60;;;20.50;81.90;;;;;;4937485;28;20086;-71
2022/08/21 02:23:56;;;;;;;6.55;2.85;;;20.60;82.10;;;;;;4937075;29;20035;-71
2022/08/21 02:26:21;;;;;;;7.88;2.80;;;20.50;82.00;;;;;;4945008;29;20027;-71
2022/08/21 02:28:47;;;;;;;9.65;2.92;;;20.50;82.00;;;;;;4953298;29;20027;-70
2022/08/21 02:31:13;;;;;;;10.02;2.95;;;20.40;82.00;;;;;;4954226;28;20047;-71
2022/08/21 02:33:39;;;;;;;7.75;2.97;;;20.40;82.00;;;;;;4949751;28;20492;-71
2022/08/21 02:36:06;;;;;;;14.50;3.42;;;20.40;82.10;;;;;;4950548;28;20114;-71
2022/08/21 02:38:37;;;;;;;9.05;2.83;;;20.40;82.10;;;;;;4952642;29;20109;-71
2022/08/21 02:41:04;;;;;;;11.85;3.30;;;20.30;82.20;;;;;;4951101;29;20043;-71
2022/08/21 02:43:30;;;;;;;5.80;2.75;;;20.30;82.30;;;;;;4955325;28;20034;-70
2022/08/21 02:45:57;;;;;;;6.50;2.72;;;20.30;82.30;;;;;;4952487;29;20042;-71
2022/08/21 02:48:26;;;;;;;10.15;3.10;;;20.30;82.40;;;;;;4944942;28;20039;-71
2022/08/21 02:50:58;;;;;;;10.85;3.25;;;20.20;83.10;;;;;;4952448;29;20064;-71
2022/08/21 02:53:25;;;;;;;11.23;3.33;;;20.20;82.50;;;;;;4943198;28;20040;-70
2022/08/21 02:55:52;;;;;;;8.68;3.10;;;20.20;82.50;;;;;;4951235;28;20125;-70
2022/08/21 02:58:28;;;;;;;11.00;3.20;;;20.20;82.50;;;;;;4953848;29;20542;-70
2022/08/21 03:00:54;;;;;;;7.15;3.38;;;20.10;82.60;;;;;;4948738;28;20482;-70
2022/08/21 03:03:20;;;;;;;10.02;3.65;;;20.10;82.50;;;;;;4954294;28;20034;-70
2022/08/21 03:05:47;;;;;;;8.35;3.38;;;20.20;82.80;;;;;;4948560;28;20514;-70
2022/08/21 03:08:14;;;;;;;8.52;3.63;;;20.10;82.80;;;;;;4947076;29;20035;-70
2022/08/21 03:10:43;;;;;;;9.95;3.13;;;20.10;82.80;;;;;;4947652;28;20178;-71
2022/08/21 03:13:09;;;;;;;6.28;2.92;;;20.00;83.40;;;;;;4947986;28;20035;-71
2022/08/21 03:15:36;;;;;;;10.38;3.38;;;20.00;82.70;;;;;;4953089;28;20104;-71
2022/08/21 03:18:04;;;;;;;8.55;3.67;;;20.00;82.70;;;;;;4954182;28;20126;-71
2022/08/21 03:20:32;;;;;;;7.25;3.10;;;19.90;82.70;;;;;;4941451;29;20056;-71
2022/08/21 03:22:58;;;;;;;12.10;4.03;;;19.90;82.80;;;;;;4952670;29;20039;-71
2022/08/21 03:25:25;;;;;;;9.05;3.47;;;19.90;83.00;;;;;;4952770;29;20031;-70
2022/08/21 03:27:51;;;;;;;8.80;3.40;;;19.90;83.30;;;;;;4941022;28;20061;-70
2022/08/21 03:30:19;;;;;;;10.23;3.45;;;19.90;83.40;;;;;;4936242;28;20027;-70
2022/08/21 03:32:46;;;;;;;8.35;3.25;;;19.80;83.40;;;;;;4935452;28;20460;-71
2022/08/21 03:35:12;;;;;;;8.85;3.55;;;19.90;83.60;;;;;;4955989;28;20035;-70
2022/08/21 03:37:38;;;;;;;7.90;3.50;;;19.80;83.70;;;;;;4945782;28;20043;-70
2022/08/21 03:40:06;;;;;;;12.20;3.38;;;19.80;83.80;;;;;;4952978;28;20039;-70
2022/08/21 03:42:32;;;;;;;11.88;3.42;;;19.80;83.80;;;;;;4941616;28;20047;-70
2022/08/21 03:44:58;;;;;;;13.75;3.58;;;19.80;83.80;;;;;;4953010;28;20035;-70
2022/08/21 03:47:24;;;;;;;8.05;3.67;;;19.80;83.80;;;;;;4951939;28;20063;-70
2022/08/21 03:49:50;;;;;;;12.38;3.92;;;19.80;83.90;;;;;;4942542;28;20035;-70
2022/08/21 03:52:16;;;;;;;9.23;4.07;;;19.70;84.00;;;;;;4941077;29;20119;-71
2022/08/21 03:54:43;;;;;;;10.70;4.07;;;19.80;84.00;;;;;;4945460;28;20063;-70
2022/08/21 03:57:09;;;;;;;8.98;3.67;;;19.80;84.10;;;;;;4948375;28;20034;-70
2022/08/21 03:59:35;;;;;;;9.15;3.63;;;19.70;84.10;;;;;;4953539;29;20098;-70
2022/08/21 04:02:03;;;;;;;7.65;3.95;;;19.70;84.20;;;;;;4951085;28;20493;-70
2022/08/21 04:04:29;;;;;;;9.68;4.30;;;19.70;84.30;;;;;;4943850;28;20031;-70
2022/08/21 04:06:56;;;;;;;9.88;3.80;;;19.70;84.30;;;;;;4944416;28;20106;-70
2022/08/21 04:09:22;;;;;;;7.40;3.65;;;19.70;84.40;;;;;;4948452;29;20032;-70
2022/08/21 04:11:48;;;;;;;6.57;3.45;;;19.60;84.30;;;;;;4950373;28;20036;-70
2022/08/21 04:14:15;;;;;;;11.00;4.20;;;19.60;84.30;;;;;;4938564;29;20360;-70
2022/08/21 04:16:44;;;;;;;8.80;3.97;;;19.60;84.40;;;;;;4950226;29;20047;-70
2022/08/21 04:19:12;;;;;;;11.10;4.22;;;19.60;84.50;;;;;;4946995;29;20042;-70
2022/08/21 04:21:38;;;;;;;10.35;4.55;;;19.50;84.30;;;;;;4956467;28;20110;-71
2022/08/21 04:24:07;;;;;;;11.88;4.40;;;19.50;84.50;;;;;;4946489;28;20115;-70
2022/08/21 04:26:34;;;;;;;10.30;4.32;;;19.40;84.40;;;;;;4951093;28;20038;-70
2022/08/21 04:29:00;;;;;;;9.65;4.43;;;19.50;84.50;;;;;;4949708;28;20119;-70
2022/08/21 04:31:28;;;;;;;9.20;4.03;;;19.50;84.50;;;;;;4943757;28;20063;-70
2022/08/21 04:33:54;;;;;;;9.95;4.28;;;19.50;84.70;;;;;;4947250;28;20042;-70
2022/08/21 04:36:20;;;;;;;13.10;4.05;;;19.40;84.70;;;;;;4956637;28;20027;-70
2022/08/21 04:38:46;;;;;;;11.55;5.13;;;19.40;84.70;;;;;;4956272;28;20442;-70
2022/08/21 04:41:12;;;;;;;11.57;4.20;;;19.30;84.50;;;;;;4938961;28;20040;-70
2022/08/21 04:43:38;;;;;;;7.10;3.67;;;19.40;84.60;;;;;;4949874;28;20118;-70
2022/08/21 04:46:04;;;;;;;9.00;4.03;;;19.40;84.40;;;;;;4954921;28;20027;-70
2022/08/21 04:48:29;;;;;;;10.63;3.72;;;19.40;84.50;;;;;;4956948;28;20444;-70
2022/08/21 04:51:02;;;;;;;13.80;4.00;;;19.30;84.40;;;;;;4952022;28;20395;-71
2022/08/21 04:53:41;;;;;;;12.63;4.38;;;19.30;84.70;;;;;;4948243;29;20063;-70
2022/08/21 04:56:23;;;;;;;8.15;3.60;;;19.30;84.70;;;;;;4956373;28;20109;-70
2022/08/21 04:58:52;;;;;;;10.60;4.00;;;19.30;84.70;;;;;;4953559;28;20031;-70
2022/08/21 05:01:21;;;;;;;8.60;4.13;;;19.20;84.70;;;;;;4945814;28;20463;-70
2022/08/21 05:03:51;;;;;;;8.27;3.63;;;19.20;84.90;;;;;;4952928;28;20456;-70
2022/08/21 05:06:17;;;;;;;16.45;4.72;;;19.20;85.00;;;;;;4947467;28;20023;-70
2022/08/21 05:08:45;;;;;;;7.53;3.58;;;19.20;84.70;;;;;;4942530;28;20046;-70
2022/08/21 05:11:11;;;;;;;10.73;4.18;;;19.30;85.00;;;;;;4945690;28;20039;-70
2022/08/21 05:13:37;;;;;;;6.05;3.42;;;19.20;84.90;;;;;;4939079;28;20031;-70
2022/08/21 05:16:03;;;;;;;11.52;4.10;;;19.20;84.90;;;;;;4948357;28;20553;-70
2022/08/21 05:18:29;;;;;;;9.73;4.00;;;19.20;84.80;;;;;;4943623;28;20038;-70
2022/08/21 05:20:54;;;;;;;13.00;4.50;;;19.20;84.80;;;;;;4965264;28;20042;-70
2022/08/21 05:23:20;;;;;;;8.70;4.03;;;19.10;84.90;;;;;;4945842;28;20031;-70
2022/08/21 05:25:46;;;;;;;8.65;3.97;;;19.10;84.80;;;;;;4944912;28;20039;-70
2022/08/21 05:28:12;;;;;;;10.10;3.90;;;19.20;84.80;;;;;;4950603;28;20082;-70
2022/08/21 05:30:38;;;;;;;6.53;3.25;;;19.10;84.80;;;;;;4948972;28;20493;-70
2022/08/21 05:33:06;;;;;;;13.20;3.15;;;19.10;84.70;;;;;;4940925;28;20059;-70
2022/08/21 05:35:32;;;;;;;13.65;3.88;;;19.10;84.80;;;;;;4955981;28;20039;-70
2022/08/21 05:37:59;;;;;;;11.80;4.00;;;19.10;84.90;;;;;;4945962;28;20546;-70
2022/08/21 05:40:25;;;;;;;9.60;3.83;;;19.10;84.90;;;;;;4952059;28;20509;-70
2022/08/21 05:42:53;;;;;;;8.38;3.83;;;19.10;84.90;;;;;;4945937;28;20071;-69
2022/08/21 05:45:19;;;;;;;10.43;3.60;;;19.10;85.00;;;;;;4955479;28;20070;-71
2022/08/21 05:47:44;;;;;;;8.20;3.67;;;19.10;85.10;;;;;;4951304;28;20027;-71
2022/08/21 05:50:10;;;;;;;11.57;3.75;;;19.10;85.30;;;;;;4949591;29;20068;-70
2022/08/21 05:52:36;;;;;;;7.97;3.40;;;19.10;85.40;;;;;;4954764;28;20031;-70
2022/08/21 05:55:02;;;;;;;6.97;3.20;;;19.10;85.20;;;;;;4944754;29;20162;-70
2022/08/21 05:57:28;;;;;;;8.65;2.83;;;19.10;84.90;;;;;;4952698;28;20118;-74
2022/08/21 05:59:54;;;;;;;8.82;3.38;;;19.10;84.70;;;;;;4954879;28;20135;-71
2022/08/21 06:02:20;;;;;;;7.07;3.00;;;19.10;84.90;;;;;;4942018;28;20042;-72
2022/08/21 06:04:46;;;;;;;6.00;3.15;;;19.10;84.90;;;;;;4944634;28;20042;-71
2022/08/21 06:07:12;;;;;;;10.88;3.50;;;19.10;85.40;;;;;;4953362;28;20066;-71
2022/08/21 06:09:38;;;;;;;11.60;3.47;;;19.10;85.50;;;;;;4954589;29;20034;-71
2022/08/21 06:12:06;;;;;;;6.88;3.65;;;19.10;85.40;;;;;;4954354;28;20090;-71
2022/08/21 06:14:32;;;;;;;21.88;5.05;;;19.10;85.70;;;;;;4955288;28;20525;-71
2022/08/21 06:17:05;;;;;;;6.93;3.03;;;19.10;85.10;;;;;;4936516;28;20027;-71
2022/08/21 06:19:31;;;;;;;14.10;3.42;;;19.10;85.50;;;;;;4936373;28;20044;-72
2022/08/21 06:21:57;;;;;;;9.55;3.88;;;19.10;85.60;;;;;;4954593;28;20079;-71
2022/08/21 06:24:23;;;;;;;10.70;3.38;;;19.10;85.90;;;;;;4941536;28;20538;-71
2022/08/21 06:26:49;;;;;;;8.32;3.35;;;19.10;85.50;;;;;;4935863;28;20028;-71
2022/08/21 06:29:16;;;;;;;15.20;3.70;;;19.20;85.60;;;;;;4959852;28;20482;-71
2022/08/21 06:31:43;;;;;;;8.13;3.50;;;19.10;85.90;;;;;;4941595;28;20121;-72
2022/08/21 06:34:10;;;;;;;10.20;4.38;;;19.20;86.20;;;;;;4953313;28;20027;-72
2022/08/21 06:36:36;;;;;;;7.22;2.28;;;19.20;86.20;;;;;;4948846;29;20085;-71
2022/08/21 06:39:02;;;;;;;12.25;3.67;;;19.20;85.40;;;;;;4951283;28;20889;-71
2022/08/21 06:41:28;;;;;;;3.15;1.88;;;19.20;86.20;;;;;;4948316;28;20050;-72
2022/08/21 06:43:55;;;;;;;12.00;3.42;;;19.20;85.30;;;;;;4952446;28;20019;-72
2022/08/21 06:46:22;;;;;;;8.02;2.95;;;19.20;86.20;;;;;;4951368;28;20517;-71
2022/08/21 06:48:48;;;;;;;18.00;3.78;;;19.20;86.30;;;;;;4952017;28;20034;-71
2022/08/21 06:51:13;;;;;;;10.25;3.25;;;19.20;86.90;;;;;;4951998;28;20027;-71
2022/08/21 06:53:39;;;;;;;13.10;3.58;;;19.30;87.00;;;;;;4951545;29;20518;-71
2022/08/21 06:56:05;;;;;;;10.02;2.45;;;19.20;87.20;;;;;;4951497;28;20080;-71
2022/08/21 06:58:30;;;;;;;9.80;3.15;;;19.30;87.10;;;;;;4953494;28;20105;-71
2022/08/21 07:00:56;;;;;;;5.97;2.00;;;19.30;87.00;;;;;;4951964;28;20043;-72
2022/08/21 07:03:27;;;;;;;1.83;1.35;;;19.30;87.10;;;;;;4952646;28;20035;-70
2022/08/21 07:05:53;;;;;;;5.22;2.20;;;19.30;87.00;;;;;;4949188;29;20043;-72
2022/08/21 07:08:20;;;;;;;6.85;1.40;;;19.30;87.90;;;;;;4951071;28;20131;-72
2022/08/21 07:10:46;;;;;;;4.88;1.90;;;19.30;88.00;;;;;;4951482;28;20034;-72
2022/08/21 07:13:12;;;;;;;10.48;2.38;;;19.30;88.00;;;;;;4950784;29;20038;-72
2022/08/21 07:15:37;;;;;;;7.25;2.35;;;19.30;88.10;;;;;;4953012;28;20031;-72
2022/08/21 07:18:03;;;;;;;4.85;1.42;;;19.30;88.50;;;;;;4949931;28;20027;-72
2022/08/21 07:20:30;;;;;;;2.22;1.23;;;19.30;88.60;;;;;;4950800;28;20040;-72
2022/08/21 07:23:02;;;;;;;2.95;1.00;;;19.30;88.60;;;;;;4953151;28;20085;-72
2022/08/21 07:25:28;;;;;;;7.50;2.08;;;19.40;88.60;;;;;;4949077;29;20500;-72
2022/08/21 07:27:54;;;;;;;1.83;1.23;;;19.40;89.70;;;;;;4952392;28;20110;-72
2022/08/21 07:30:20;;;;;;;5.13;1.58;;;19.40;89.70;;;;;;4952013;28;20031;-72
2022/08/21 07:32:48;;;;;;;4.20;1.30;;;19.40;89.90;;;;;;4949915;28;20039;-72
2022/08/21 07:35:15;;;;;;;0.60;0.60;;;19.40;89.90;;;;;;4946673;28;20075;-72
2022/08/21 07:37:40;;;;;;;1.67;1.17;;;19.40;89.90;;;;;;4953872;28;20035;-72
2022/08/21 07:40:07;;;;;;;0.75;0.52;;;19.40;90.00;;;;;;4956720;28;20044;-72
2022/08/21 07:42:32;;;;;;;1.42;0.93;;;19.40;90.00;;;;;;4956306;28;20049;-71
2022/08/21 07:44:58;;;;;;;1.10;1.00;;;19.40;90.00;;;;;;4954999;28;20019;-71
2022/08/21 07:47:23;;;;;;;1.23;0.82;;;19.40;90.00;;;;;;4954635;28;20031;-71
2022/08/21 07:49:49;;;;;;;3.97;1.20;;;19.40;90.00;;;;;;4951485;29;20035;-72
2022/08/21 07:52:15;;;;;;;1.20;0.93;;;19.40;90.10;;;;;;4952266;28;20082;-71
2022/08/21 07:54:40;;;;;;;1.02;0.75;;;19.40;90.00;;;;;;4953426;28;20483;-71
2022/08/21 07:57:06;;;;;;;2.55;1.00;;;19.40;90.00;;;;;;4952507;28;20027;-72
2022/08/21 07:59:31;;;;;;;8.68;1.40;;;19.40;90.00;;;;;;4952192;28;20434;-70
2022/08/21 08:01:57;;;;;;;2.58;1.17;;;19.40;90.00;;;;;;4952439;28;20035;-70
2022/08/21 08:04:23;;;;;;;1.20;0.88;;;19.50;90.10;;;;;;4954829;28;20066;-71
2022/08/21 08:06:48;;;;;;;1.05;0.88;;;19.50;90.10;;;;;;4954074;28;20620;-71
2022/08/21 08:09:15;;;;;;;2.03;1.05;;;19.50;90.10;;;;;;4952888;28;20701;-71
2022/08/21 08:11:43;;;;;;;4.85;1.00;;;19.60;90.20;;;;;;4952970;28;20058;-71
2022/08/21 08:14:09;;;;;;;6.60;1.33;;;19.60;90.20;;;;;;4953968;28;20035;-71
2022/08/21 08:16:35;;;;;;;3.97;1.38;;;19.60;90.20;;;;;;4953103;28;20078;-71
2022/08/21 08:19:01;;;;;;;2.17;1.08;;;19.60;90.20;;;;;;4952909;28;20418;-71
2022/08/21 08:21:27;;;;;;;2.88;0.98;;;19.70;90.20;;;;;;4953261;28;20090;-71
2022/08/21 08:23:53;;;;;;;0.52;0.50;;;19.70;90.20;;;;;;4951620;28;20079;-71
2022/08/21 08:26:18;;;;;;;6.07;1.25;;;19.70;90.10;;;;;;4951987;29;20067;-70
2022/08/21 08:28:46;;;;;;;3.03;0.95;;;19.80;90.40;;;;;;4953078;28;20039;-70
2022/08/21 08:31:12;;;;;;;2.22;1.17;;;19.80;90.20;;;;;;4952623;28;20775;-71
2022/08/21 08:33:38;;;;;;;8.55;1.98;;;19.90;90.20;;;;;;4951419;28;20035;-71
2022/08/21 08:36:04;;;;;;;5.95;1.02;;;19.90;90.40;;;;;;4953887;28;20027;-71
2022/08/21 08:38:30;;;;;;;2.20;1.55;;;19.90;90.10;;;;;;4952255;28;20421;-71
2022/08/21 08:41:13;;;;;;;1.80;1.10;;;20.00;90.10;;;;;;4951982;28;20492;-71
2022/08/21 08:43:40;;;;;;;2.97;1.15;;;20.00;90.00;;;;;;4950630;28;20043;-71
2022/08/21 08:46:13;;;;;;;1.38;0.88;;;20.10;90.20;;;;;;4950624;28;20046;-71
2022/08/21 08:48:53;;;;;;;2.83;1.52;;;20.10;90.30;;;;;;4950726;28;20082;-71
2022/08/21 08:51:29;;;;;;;1.92;1.13;;;20.30;90.30;;;;;;4950414;28;20098;-71
2022/08/21 08:53:59;;;;;;;8.02;1.38;;;20.30;90.20;;;;;;4950262;28;20027;-70
2022/08/21 08:56:30;;;;;;;0.68;0.57;;;20.30;90.30;;;;;;4950739;28;20546;-71
2022/08/21 08:59:01;;;;;;;5.45;1.48;;;20.30;90.20;;;;;;4951419;28;20063;-71
2022/08/21 09:01:27;;;;;;;0.77;0.77;;;20.40;90.20;;;;;;4953383;29;20039;-71
2022/08/21 09:03:52;;;;;;;5.13;1.45;;;20.40;90.30;;;;;;4952467;28;20146;-71
2022/08/21 09:06:30;;;;;;;3.58;1.27;;;20.50;90.50;;;;;;4951786;29;20493;-71
2022/08/21 09:09:20;;;;;;;5.88;1.15;;;20.60;90.60;;;;;;4950170;28;20039;-71
2022/08/21 09:11:59;;;;;;;2.97;1.58;;;20.70;90.70;;;;;;4950246;29;20038;-72
2022/08/21 09:14:38;;;;;;;6.20;1.90;;;20.70;90.90;;;;;;4944342;28;20055;-71
2022/08/21 09:17:07;;;;;;;2.08;1.52;;;20.80;90.80;;;;;;4945273;28;20468;-71
2022/08/21 09:19:41;;;;;;;3.88;1.45;;;20.80;90.70;;;;;;4943814;28;20155;-72
2022/08/21 09:22:30;;;;;;;1.90;0.80;;;20.80;90.70;;;;;;4944482;28;20039;-71
2022/08/21 09:25:22;;;;;;;3.42;1.02;;;20.80;90.60;;;;;;4944711;28;20060;-72
2022/08/21 09:27:48;;;;;;;5.22;1.15;;;20.90;90.50;;;;;;4942879;28;20036;-72
2022/08/21 09:30:14;;;;;;;1.50;0.95;;;20.90;90.70;;;;;;4946897;28;20035;-71
2022/08/21 09:32:41;;;;;;;7.32;1.95;;;20.90;90.70;;;;;;4944980;28;20031;-71
2022/08/21 09:35:19;;;;;;;1.35;1.00;;;21.00;90.70;;;;;;4947959;28;20046;-72
2022/08/21 09:37:51;;;;;;;2.95;1.77;;;21.00;90.70;;;;;;4952618;28;20043;-72
2022/08/21 09:40:37;;;;;;;1.30;0.70;;;21.10;90.70;;;;;;4937475;28;20053;-71
2022/08/21 09:43:25;;;;;;;1.00;0.80;;;21.20;90.90;;;;;;4938435;28;20392;-71
2022/08/21 09:46:03;;;;;;;4.18;1.48;;;21.20;90.70;;;;;;4946335;28;20052;-72
2022/08/21 09:48:29;;;;;;;11.73;2.83;;;21.30;90.80;;;;;;4954420;28;20055;-71
2022/08/21 09:51:08;;;;;;;7.75;1.90;;;21.30;90.80;;;;;;4951750;28;20055;-71
2022/08/21 09:53:35;;;;;;;2.80;1.67;;;21.40;90.50;;;;;;4948465;28;20407;-72
2022/08/21 09:58:50;;;;;;;3.33;0.93;;;21.40;90.50;;;;;;4954880;28;20047;-72
2022/08/21 10:01:23;;;;;;;5.13;1.65;;;21.50;90.30;;;;;;4953899;28;20039;-72
2022/08/21 10:04:01;;;;;;;2.80;1.17;;;21.60;90.40;;;;;;4952328;28;20034;-72
2022/08/21 10:06:28;;;;;;;1.58;0.70;;;21.60;90.30;;;;;;4936865;29;20040;-72
2022/08/21 10:09:13;;;;;;;0.52;0.52;;;21.70;90.20;;;;;;4935983;28;20537;-72
2022/08/21 10:11:43;;;;;;;2.35;1.02;;;21.70;90.00;;;;;;4951197;29;20360;-71
2022/08/21 10:14:36;;;;;;;11.38;2.47;;;21.70;90.00;;;;;;4950037;28;20027;-71
2022/08/21 10:17:09;;;;;;;4.03;1.50;;;21.80;90.20;;;;;;4947261;28;20130;-71
2022/08/21 10:20:07;;;;;;;8.27;1.87;;;21.80;90.20;;;;;;4937399;28;20402;-71
2022/08/21 10:22:43;;;;;;;10.30;2.03;;;22.00;90.30;;;;;;4936329;29;20284;-71
2022/08/21 10:25:23;;;;;;;8.23;1.35;;;22.00;90.20;;;;;;4939561;28;20026;-72
2022/08/21 10:28:13;;;;;;;11.07;1.80;;;22.10;90.20;;;;;;4943028;28;20027;-71
2022/08/21 10:30:55;;;;;;;10.32;2.20;;;22.20;90.20;;;;;;4935413;29;20434;-71
2022/08/21 10:33:38;;;;;;;6.40;1.50;;;22.30;90.00;;;;;;4937901;28;20036;-72
2022/08/21 10:36:04;;;;;;;5.55;1.73;;;22.30;89.80;;;;;;4946447;28;20535;-71
2022/08/21 10:38:45;;;;;;;8.43;2.47;;;22.40;89.50;;;;;;4941241;28;20122;-71
2022/08/21 10:41:38;;;;;;;14.35;2.00;;;22.50;89.10;;;;;;4950183;28;20048;-71
2022/08/21 10:44:34;;;;;;;9.95;1.92;;;22.60;88.80;;;;;;4953428;29;20360;-72
2022/08/21 10:47:03;;;;;;;2.22;1.20;;;22.70;88.60;;;;;;4942205;28;20114;-71
2022/08/21 10:49:36;;;;;;;8.77;2.00;;;22.70;88.40;;;;;;4948526;29;20038;-71
2022/08/21 10:52:16;;;;;;;4.13;1.42;;;22.70;88.10;;;;;;4936518;28;20682;-70
2022/08/21 10:54:49;;;;;;;16.17;2.25;;;22.80;88.20;;;;;;4934978;29;20054;-68
2022/08/21 10:57:27;;;;;;;5.22;1.83;;;22.90;87.90;;;;;;4947611;29;20031;-71
2022/08/21 11:00:01;;;;;;;8.98;1.88;;;22.90;87.90;;;;;;4940963;29;20233;-71
2022/08/21 11:02:30;;;;;;;6.28;2.00;;;23.00;87.50;;;;;;4937200;28;22109;-72
2022/08/21 11:05:15;;;;;;;6.82;1.33;;;23.00;87.00;;;;;;4933958;28;20526;-71
2022/08/21 11:07:51;;;;;;;7.65;1.10;;;23.10;86.70;;;;;;4934462;28;20028;-71
2022/08/21 11:10:27;;;;;;;7.93;0.85;;;23.10;86.40;;;;;;4937401;28;20031;-71
2022/08/21 11:13:13;;;;;;;7.72;1.45;;;23.20;86.20;;;;;;4933080;28;20039;-71
2022/08/21 11:15:51;;;;;;;11.80;1.55;;;23.20;86.10;;;;;;4933285;29;20034;-71
2022/08/21 11:18:19;;;;;;;5.80;2.13;;;23.30;85.80;;;;;;4930208;28;20059;-72
2022/08/21 11:21:22;;;;;;;4.22;1.30;;;23.30;85.70;;;;;;4932865;28;20042;-72
2022/08/21 11:24:11;;;;;;;11.52;1.65;;;23.30;85.70;;;;;;4934996;28;20085;-71
2022/08/21 11:27:15;;;;;;;4.95;1.42;;;23.40;85.20;;;;;;4919006;29;20143;-71
2022/08/21 11:29:46;;;;;;;7.28;1.70;;;23.40;85.20;;;;;;4939548;28;20086;-71
2022/08/21 11:32:44;;;;;;;2.38;1.30;;;23.40;85.70;;;;;;4936127;28;20040;-70
2022/08/21 11:35:25;;;;;;;0.30;0.30;;;23.50;85.60;;;;;;4921057;28;20058;-71
2022/08/21 11:38:29;;;;;;;7.30;1.42;;;23.60;85.70;;;;;;4936586;28;20035;-71
2022/08/21 11:41:29;;;;;;;2.17;0.55;;;23.60;84.80;;;;;;4923827;28;20067;-71
2022/08/21 11:44:19;;;;;;;1.73;1.15;;;23.70;84.60;;;;;;4931188;29;20487;-71
2022/08/21 11:47:11;;;;;;;8.40;1.90;;;23.70;84.60;;;;;;4938043;28;20860;-71
2022/08/21 11:50:10;;;;;;;5.15;1.60;;;23.70;84.50;;;;;;4937150;29;20047;-72
2022/08/21 11:52:49;;;;;;;8.80;1.75;;;23.70;84.30;;;;;;4948287;28;20098;-71
2022/08/21 11:55:22;;;;;;;4.15;1.42;;;23.70;83.70;;;;;;4948812;28;20054;-71
2022/08/21 11:57:57;;;;;;;6.20;1.60;;;23.70;83.50;;;;;;4947651;28;20083;-71
2022/08/21 12:00:27;;;;;;;7.43;1.60;;;23.80;82.90;;;;;;4949143;28;20491;-71
2022/08/21 12:03:05;;;;;;;9.27;2.78;;;23.90;83.10;;;;;;4950265;28;20040;-71
2022/08/21 12:05:35;;;;;;;15.25;2.13;;;23.90;83.00;;;;;;4951285;28;20031;-71
2022/08/21 12:08:06;;;;;;;10.95;2.10;;;24.00;82.30;;;;;;4949028;28;20155;-71
2022/08/21 12:10:58;;;;;;;11.38;2.20;;;24.10;82.30;;;;;;4950284;28;20035;-72
2022/08/21 12:13:29;;;;;;;11.43;1.80;;;24.20;82.30;;;;;;4947328;29;20122;-72
2022/08/21 12:16:27;;;;;;;10.07;2.08;;;24.30;82.10;;;;;;4948661;28;20036;-71
2022/08/21 12:19:07;;;;;;;7.72;1.95;;;24.30;82.00;;;;;;4948852;28;20125;-72
2022/08/21 12:21:46;;;;;;;10.40;2.75;;;24.40;81.90;;;;;;4949484;28;20171;-71
2022/08/21 12:24:14;;;;;;;9.43;2.10;;;24.40;81.60;;;;;;4950128;28;20039;-72
2022/08/21 12:26:53;;;;;;;11.57;2.10;;;24.50;81.30;;;;;;4952492;28;20035;-72
2022/08/21 12:29:32;;;;;;;7.90;1.75;;;24.50;81.30;;;;;;4950648;28;20438;-71
2022/08/21 12:32:07;;;;;;;7.60;1.40;;;24.60;81.30;;;;;;4951744;28;20046;-71
2022/08/21 12:34:55;;;;;;;8.15;1.85;;;24.60;81.50;;;;;;4950040;28;20070;-71
2022/08/21 12:37:22;;;;;;;8.57;1.63;;;24.50;81.20;;;;;;4949181;28;20023;-71
2022/08/21 12:39:51;;;;;;;7.25;1.85;;;24.60;81.10;;;;;;4952028;28;20032;-72
2022/08/21 12:42:27;;;;;;;3.20;1.20;;;24.60;81.10;;;;;;4952554;28;20035;-71
2022/08/21 12:45:02;;;;;;;9.25;1.50;;;24.60;81.50;;;;;;4950628;28;20791;-71
2022/08/21 12:47:43;;;;;;;5.47;1.67;;;24.60;80.80;;;;;;4950532;28;20027;-71
2022/08/21 12:50:17;;;;;;;14.77;2.55;;;24.60;80.40;;;;;;4951090;29;20031;-71
2022/08/21 12:52:53;;;;;;;11.70;1.75;;;24.60;80.40;;;;;;4949665;28;20035;-71
2022/08/21 12:55:29;;;;;;;5.35;1.20;;;24.60;80.60;;;;;;4949546;28;20066;-71
2022/08/21 12:57:55;;;;;;;7.30;1.70;;;24.70;79.40;;;;;;4948677;28;20043;-71
2022/08/21 13:00:23;;;;;;;4.60;1.55;;;24.70;79.00;;;;;;4948466;28;20811;-71
2022/08/21 13:02:51;;;;;;;8.73;2.35;;;24.70;78.00;;;;;;4949868;28;20027;-72